»·PEaware :: N3DC KSNA-KCRQ

N3DC :: KSNA-KCRQ

FLIGHT INFORMATION

Flight Status: Arrived
Operator: Privately registered:
United States
More flights under this callsign
Pilot: Josh R. (20192)
Aircraft: MCDONNELL-DOUGLAS SKYTRAIN C-47
(DC3)
More flights by this aircraft type
Origin: KSNA John Wayne-Orange Co
United States
Destination: KCRQ McClellan-Palomar
United States
More flights between these airports :: More routes between these airports
Route: V23 OCN
File this flight plan on PilotEdge
Remarks: CSTP30
Altitude:
(Current/Filed)
5,000ft
Speed:
(Current/Filed)
130kts
Departed: 12-Oct-20 02:26 PM
Arrived: 12-Oct-20 03:01 PM
Distance/Time
Traveled:
44nm/0:35
Distance/Time
To Go:
Arrived

Flight Plot

Page will automatically refresh every two minutes.


Map Options




Map Legend


Flown Route
Filed Route
Departure Airport
Arrival Airport
Navaid (VOR, NDB)
Fix

Horizontal Profiles

Position Reports

Time Latitude Longitude Heading Altitude Ground
Speed
12-Oct-20 13:52 33.671596 -117.867559 208 56ft 0kts
12-Oct-20 13:53 33.671596 -117.867559 208 56ft 0kts
12-Oct-20 13:54 33.671596 -117.867559 208 56ft 0kts
12-Oct-20 13:55 33.671596 -117.867559 208 56ft 0kts
12-Oct-20 13:56 33.671596 -117.867559 208 56ft 0kts
12-Oct-20 13:57 33.671596 -117.867559 208 56ft 0kts
12-Oct-20 13:59 33.671596 -117.867559 208 56ft 0kts
12-Oct-20 14:00 33.671596 -117.867559 208 56ft 0kts
12-Oct-20 14:01 33.671596 -117.867559 208 56ft 0kts
12-Oct-20 14:02 33.671596 -117.867559 208 56ft 0kts
12-Oct-20 14:03 33.671596 -117.867559 208 56ft 0kts
12-Oct-20 14:04 33.671596 -117.867559 208 56ft 0kts
12-Oct-20 14:05 33.671596 -117.867559 208 56ft 0kts
12-Oct-20 14:06 33.671596 -117.867559 208 56ft 0kts
12-Oct-20 14:07 33.671596 -117.867559 208 56ft 0kts
12-Oct-20 14:08 33.671596 -117.867559 208 56ft 0kts
12-Oct-20 14:09 33.671596 -117.867559 208 56ft 0kts
12-Oct-20 14:10 33.671596 -117.867559 208 56ft 0kts
12-Oct-20 14:11 33.671596 -117.867559 208 56ft 0kts
12-Oct-20 14:12 33.671596 -117.867559 208 56ft 0kts
12-Oct-20 14:13 33.671596 -117.867559 208 56ft 0kts
12-Oct-20 14:13 33.671596 -117.867559 208 56ft 0kts
12-Oct-20 14:15 33.671596 -117.867559 208 56ft 0kts
12-Oct-20 14:15 33.671596 -117.867559 208 56ft 0kts
12-Oct-20 14:17 33.671473 -117.867724 282 57ft 0kts
12-Oct-20 14:17 33.673464 -117.867705 35 55ft 0kts
12-Oct-20 14:18 33.673465 -117.867704 35 55ft 0kts
12-Oct-20 14:19 33.673465 -117.867704 35 55ft 0kts
12-Oct-20 14:20 33.673472 -117.867698 35 55ft 0kts
12-Oct-20 14:21 33.676741 -117.864818 27 48ft 19kts
12-Oct-20 14:22 33.679849 -117.863395 303 44ft 3kts
12-Oct-20 14:23 33.680257 -117.864226 297 44ft 12kts
12-Oct-20 14:24 33.680658 -117.865208 281 45ft 9kts
12-Oct-20 14:25 33.674037 -117.869882 204 197ft 78kts
12-Oct-20 14:26 33.650101 -117.872133 191 1163ft 93kts
12-Oct-20 14:27 33.623224 -117.875986 188 1761ft 125kts
12-Oct-20 14:28 33.603209 -117.858551 116 2650ft 130kts
12-Oct-20 14:29 33.591366 -117.819624 129 3380ft 115kts
12-Oct-20 14:30 33.572563 -117.790000 148 4097ft 110kts
12-Oct-20 14:31 33.548206 -117.768019 146 4817ft 106kts
12-Oct-20 14:32 33.523060 -117.741420 139 5003ft 140kts
12-Oct-20 14:33 33.494538 -117.708196 140 5067ft 144kts
12-Oct-20 14:34 33.465864 -117.673113 141 5072ft 146kts
12-Oct-20 14:35 33.434652 -117.640653 140 4928ft 153kts
12-Oct-20 14:36 33.404993 -117.605910 142 4956ft 149kts
12-Oct-20 14:37 33.374514 -117.572599 142 4942ft 149kts
12-Oct-20 14:38 33.345452 -117.537865 139 5079ft 153kts
12-Oct-20 14:39 33.311264 -117.498303 138 4975ft 179kts
12-Oct-20 14:40 33.275266 -117.455733 140 5011ft 181kts
12-Oct-20 14:41 33.238333 -117.414819 132 5026ft 185kts
12-Oct-20 14:42 33.237657 -117.357572 97 4807ft 166kts
12-Oct-20 14:43 33.230181 -117.306807 106 4580ft 148kts
12-Oct-20 14:44 33.227598 -117.261053 98 4525ft 138kts
12-Oct-20 14:45 33.224801 -117.214266 110 4521ft 133kts
12-Oct-20 14:46 33.217022 -117.172768 106 4564ft 125kts
12-Oct-20 14:47 33.206753 -117.134915 127 4404ft 119kts
12-Oct-20 14:48 33.192464 -117.105423 125 4555ft 106kts
12-Oct-20 14:49 33.195345 -117.066863 87 4474ft 115kts
12-Oct-20 14:50 33.178622 -117.062596 190 3847ft 112kts
12-Oct-20 14:51 33.157478 -117.072966 262 3442ft 100kts
12-Oct-20 14:52 33.156986 -117.102779 253 3158ft 77kts
12-Oct-20 14:53 33.150312 -117.123666 253 2656ft 70kts
12-Oct-20 14:54 33.151566 -117.147878 255 2310ft 74kts
12-Oct-20 14:55 33.145490 -117.170253 249 2121ft 74kts
12-Oct-20 14:56 33.142582 -117.194734 241 1741ft 73kts
12-Oct-20 14:57 33.137622 -117.218937 260 1321ft 78kts
12-Oct-20 14:58 33.133894 -117.242822 257 915ft 73kts
12-Oct-20 14:59 33.130347 -117.265816 254 516ft 70kts
12-Oct-20 15:00 33.127532 -117.279503 116 339ft 0kts
12-Oct-20 15:01 33.127050 -117.279120 80 339ft 0kts
12-Oct-20 15:02 33.127050 -117.279121 81 339ft 0kts

Navigation Log

Ident Type
Flight plan parsing failed, navigation log unavailable